aviador You're here:

KPNC Decoded Metar

PONCA CITY in OK, USA
Report Time2017-08-22 21:53:00
UTC Time2017-08-22 22:19:43
Flight Rules mvfr MVFR
Wind060° at 18 Gusting to 23 kt
W.Decomp.*RWY 35: 7.6 kt HW 16.3 kt RCW
W.Rank060° ranks 22
Current wind is above 060° avg. (7.9)
Visibility9999 m
Phenomena:N/A
Clouds:Broken 021 Hf
Broken 029 Hf
Expected CloudBase > 2,800 ft AGL from Temp-Dew spread
Ceiling2,100 ft
Temp28°C (ISA +15)
Dew Point21°C (66% RH)
Heat Index30.2°C
AAT25.7°C
QNH1017 hPa
Density Alt2,933 ft
Elevation1,010 ft
Report Wrong Elevation
Raw Report
KPNC 222153Z AUTO 06018G23KT 10SM BKN021 BKN029 28/21 A3003 RMK
AO2 PK WND 04026/2110 LTG DSNT E-SW SLP157 T02780211=

Extra information for KPNC:More info

Metar Taf Metar & Taf Last 4 Metars F.Rules Stats Wind Profile Meteogram Temp Stats Airport Information Weather charts Add Link Nearby VenuesMetar ALERT Operation Metar Decoded Social comments

AIRNAV info for KPNC